Current | Forecast
Updated: 10:00 AM JST on October 18, 2017
Observed at Toyama Airport, Japan
Temperature 61°F
Humidity 68%
Dew Point 50°F
Wind NNE at 16 mph
Pressure 30.24 in (Falling)
Conditions Mostly Cloudy
Visibility 6.2 miles
UV 2 out of 16
Clouds (FEW) : 2000 ft
Mostly Cloudy (BKN) : 3000 ft
Yesterday's Maximum 70°F
Yesterday's Minimum 57°F approx.
Yesterday's Heating Degree Days 1 approx.
Sunrise6:00 AM JST
Sunset5:10 PM JST
Moon Rise4:04 AM JST
Moon Set4:36 PM JST
Moon PhaseMoon Phase
Waning Crescent
Raw METARMETAR RJNT 180100Z 02014KT 360V070 9999 FEW020 BKN030 16/10 Q1024


Monday
. High: 82° F.
Tuesday
. High: 78° F.
Wednesday
. High: 71° F.
Thursday
. High: 75° F.
Friday
. High: 75° F.
Saturday
. High: 71° F.
Sunday
. High: 75° F.
Monday
. High: 75° F.

Units: English | Metric

Find the Weather for any City, State or Zipcode, or Country:

U.S. State List | Severe Weather | Tropical Storms | Ski Conditions
United States | Canada | Central America | South America | Asia | Europe | Australia | Africa | Islands

Weather Underground

© Copyright 2017
The Weather Company, LLC